sensor_id;sensor_type;location;lat;lon;timestamp;temperature;humidity
70534;SHT31;58088;51.186;17.130;2022-09-17T00:01:00;10.83;73.37
70534;SHT31;58088;51.186;17.130;2022-09-17T00:03:27;10.82;73.51
70534;SHT31;58088;51.186;17.130;2022-09-17T00:05:58;10.82;73.58
70534;SHT31;58088;51.186;17.130;2022-09-17T00:08:26;10.82;73.71
70534;SHT31;58088;51.186;17.130;2022-09-17T00:10:52;10.83;73.71
70534;SHT31;58088;51.186;17.130;2022-09-17T00:13:18;10.85;73.72
70534;SHT31;58088;51.186;17.130;2022-09-17T00:15:45;10.85;73.66
70534;SHT31;58088;51.186;17.130;2022-09-17T00:18:12;10.87;73.69
70534;SHT31;58088;51.186;17.130;2022-09-17T00:20:43;10.86;73.78
70534;SHT31;58088;51.186;17.130;2022-09-17T00:23:12;10.87;73.77
70534;SHT31;58088;51.186;17.130;2022-09-17T00:25:40;10.85;73.78
70534;SHT31;58088;51.186;17.130;2022-09-17T00:28:09;10.85;73.81
70534;SHT31;58088;51.186;17.130;2022-09-17T00:30:43;10.87;73.76
70534;SHT31;58088;51.186;17.130;2022-09-17T00:33:12;10.88;73.76
70534;SHT31;58088;51.186;17.130;2022-09-17T00:35:42;10.87;73.74
70534;SHT31;58088;51.186;17.130;2022-09-17T00:38:09;10.90;73.68
70534;SHT31;58088;51.186;17.130;2022-09-17T00:40:36;10.93;73.60
70534;SHT31;58088;51.186;17.130;2022-09-17T00:43:03;10.93;73.60
70534;SHT31;58088;51.186;17.130;2022-09-17T00:45:34;10.92;73.59
70534;SHT31;58088;51.186;17.130;2022-09-17T00:48:01;10.91;73.53
70534;SHT31;58088;51.186;17.130;2022-09-17T00:50:35;10.90;73.50
70534;SHT31;58088;51.186;17.130;2022-09-17T00:53:08;10.91;73.49
70534;SHT31;58088;51.186;17.130;2022-09-17T00:55:47;10.92;73.51
70534;SHT31;58088;51.186;17.130;2022-09-17T00:58:22;10.92;73.58
70534;SHT31;58088;51.186;17.130;2022-09-17T01:00:52;10.93;73.60
70534;SHT31;58088;51.186;17.130;2022-09-17T01:03:18;10.94;73.51
70534;SHT31;58088;51.186;17.130;2022-09-17T01:08:30;10.94;73.40
70534;SHT31;58088;51.186;17.130;2022-09-17T01:26:07;10.93;73.09
70534;SHT31;58088;51.186;17.130;2022-09-17T01:32:51;11.06;72.65
70534;SHT31;58088;51.186;17.130;2022-09-17T01:41:40;11.19;72.28
70534;SHT31;58088;51.186;17.130;2022-09-17T01:44:28;11.25;72.19
70534;SHT31;58088;51.186;17.130;2022-09-17T01:47:46;11.26;72.12
70534;SHT31;58088;51.186;17.130;2022-09-17T01:50:08;11.29;71.94
70534;SHT31;58088;51.186;17.130;2022-09-17T01:52:43;11.30;71.87
70534;SHT31;58088;51.186;17.130;2022-09-17T01:55:14;11.33;71.88
70534;SHT31;58088;51.186;17.130;2022-09-17T01:57:49;11.34;71.90
70534;SHT31;58088;51.186;17.130;2022-09-17T02:00:28;11.35;71.77
70534;SHT31;58088;51.186;17.130;2022-09-17T02:02:59;11.37;71.62
70534;SHT31;58088;51.186;17.130;2022-09-17T02:05:33;11.38;71.60
70534;SHT31;58088;51.186;17.130;2022-09-17T02:08:14;11.38;71.60
70534;SHT31;58088;51.186;17.130;2022-09-17T02:11:22;11.39;71.60
70534;SHT31;58088;51.186;17.130;2022-09-17T02:16:12;11.36;71.53
70534;SHT31;58088;51.186;17.130;2022-09-17T02:21:41;11.38;71.51
70534;SHT31;58088;51.186;17.130;2022-09-17T02:24:15;11.38;71.56
70534;SHT31;58088;51.186;17.130;2022-09-17T02:26:58;11.39;71.54
70534;SHT31;58088;51.186;17.130;2022-09-17T02:29:33;11.40;71.52
70534;SHT31;58088;51.186;17.130;2022-09-17T02:32:07;11.41;71.49
70534;SHT31;58088;51.186;17.130;2022-09-17T02:34:35;11.41;71.50
70534;SHT31;58088;51.186;17.130;2022-09-17T02:37:03;11.40;71.46
70534;SHT31;58088;51.186;17.130;2022-09-17T02:39:30;11.41;71.60
70534;SHT31;58088;51.186;17.130;2022-09-17T02:53:54;11.64;71.63
70534;SHT31;58088;51.186;17.130;2022-09-17T02:56:39;11.68;71.64
70534;SHT31;58088;51.186;17.130;2022-09-17T02:59:18;11.72;71.53
70534;SHT31;58088;51.186;17.130;2022-09-17T03:01:55;11.77;71.49
70534;SHT31;58088;51.186;17.130;2022-09-17T03:04:30;11.83;71.51
70534;SHT31;58088;51.186;17.130;2022-09-17T03:06:58;11.85;71.24
70534;SHT31;58088;51.186;17.130;2022-09-17T03:09:30;11.90;71.02
70534;SHT31;58088;51.186;17.130;2022-09-17T03:11:56;11.95;70.90
70534;SHT31;58088;51.186;17.130;2022-09-17T03:14:22;11.97;70.85
70534;SHT31;58088;51.186;17.130;2022-09-17T03:16:48;12.01;70.88
70534;SHT31;58088;51.186;17.130;2022-09-17T03:19:14;12.02;70.85
70534;SHT31;58088;51.186;17.130;2022-09-17T03:21:40;12.03;70.73
70534;SHT31;58088;51.186;17.130;2022-09-17T03:24:07;12.05;70.62
70534;SHT31;58088;51.186;17.130;2022-09-17T03:26:33;12.07;70.56
70534;SHT31;58088;51.186;17.130;2022-09-17T03:28:59;12.08;70.40
70534;SHT31;58088;51.186;17.130;2022-09-17T03:31:25;12.09;70.36
70534;SHT31;58088;51.186;17.130;2022-09-17T03:33:51;12.11;70.38
70534;SHT31;58088;51.186;17.130;2022-09-17T03:36:17;12.11;70.37
70534;SHT31;58088;51.186;17.130;2022-09-17T03:38:43;12.13;70.48
70534;SHT31;58088;51.186;17.130;2022-09-17T03:41:10;12.14;70.83
70534;SHT31;58088;51.186;17.130;2022-09-17T03:43:36;12.11;71.16
70534;SHT31;58088;51.186;17.130;2022-09-17T03:46:05;12.09;71.38
70534;SHT31;58088;51.186;17.130;2022-09-17T03:48:32;12.07;71.51
70534;SHT31;58088;51.186;17.130;2022-09-17T03:51:01;12.05;71.72
70534;SHT31;58088;51.186;17.130;2022-09-17T03:53:28;12.04;71.88
70534;SHT31;58088;51.186;17.130;2022-09-17T03:55:56;12.03;72.06
70534;SHT31;58088;51.186;17.130;2022-09-17T03:58:25;12.03;72.07
70534;SHT31;58088;51.186;17.130;2022-09-17T04:00:52;12.02;72.16
70534;SHT31;58088;51.186;17.130;2022-09-17T04:03:22;12.03;72.30
70534;SHT31;58088;51.186;17.130;2022-09-17T04:05:50;12.03;72.31
70534;SHT31;58088;51.186;17.130;2022-09-17T04:08:16;12.03;72.37
70534;SHT31;58088;51.186;17.130;2022-09-17T04:10:43;12.04;72.36
70534;SHT31;58088;51.186;17.130;2022-09-17T04:13:10;12.04;72.40
70534;SHT31;58088;51.186;17.130;2022-09-17T04:15:38;12.04;72.43
70534;SHT31;58088;51.186;17.130;2022-09-17T04:18:04;12.05;72.48
70534;SHT31;58088;51.186;17.130;2022-09-17T04:20:31;12.06;72.51
70534;SHT31;58088;51.186;17.130;2022-09-17T04:22:57;12.06;72.41
70534;SHT31;58088;51.186;17.130;2022-09-17T04:25:23;12.08;72.50
70534;SHT31;58088;51.186;17.130;2022-09-17T04:27:49;12.10;72.40
70534;SHT31;58088;51.186;17.130;2022-09-17T04:30:16;12.11;72.43
70534;SHT31;58088;51.186;17.130;2022-09-17T04:32:43;12.11;72.36
70534;SHT31;58088;51.186;17.130;2022-09-17T04:35:10;12.12;72.27
70534;SHT31;58088;51.186;17.130;2022-09-17T04:37:37;12.14;72.39
70534;SHT31;58088;51.186;17.130;2022-09-17T04:40:04;12.14;72.52
70534;SHT31;58088;51.186;17.130;2022-09-17T04:42:32;12.16;72.45
70534;SHT31;58088;51.186;17.130;2022-09-17T04:44:58;12.19;72.51
70534;SHT31;58088;51.186;17.130;2022-09-17T04:47:24;12.22;72.69
70534;SHT31;58088;51.186;17.130;2022-09-17T04:49:50;12.21;72.90
70534;SHT31;58088;51.186;17.130;2022-09-17T04:52:17;12.19;73.13
70534;SHT31;58088;51.186;17.130;2022-09-17T04:54:43;12.15;73.31
70534;SHT31;58088;51.186;17.130;2022-09-17T04:57:09;12.14;73.48
70534;SHT31;58088;51.186;17.130;2022-09-17T04:59:36;12.15;73.64
70534;SHT31;58088;51.186;17.130;2022-09-17T05:02:02;12.16;73.76
70534;SHT31;58088;51.186;17.130;2022-09-17T05:04:28;12.17;73.91
70534;SHT31;58088;51.186;17.130;2022-09-17T05:06:54;12.17;74.00
70534;SHT31;58088;51.186;17.130;2022-09-17T05:09:20;12.17;74.07
70534;SHT31;58088;51.186;17.130;2022-09-17T05:11:46;12.18;74.02
70534;SHT31;58088;51.186;17.130;2022-09-17T05:14:13;12.19;74.11
70534;SHT31;58088;51.186;17.130;2022-09-17T05:16:39;12.20;74.17
70534;SHT31;58088;51.186;17.130;2022-09-17T05:19:05;12.21;74.13
70534;SHT31;58088;51.186;17.130;2022-09-17T05:21:32;12.23;74.23
70534;SHT31;58088;51.186;17.130;2022-09-17T05:23:58;12.25;74.21
70534;SHT31;58088;51.186;17.130;2022-09-17T05:26:26;12.27;74.32
70534;SHT31;58088;51.186;17.130;2022-09-17T05:28:52;12.31;74.41
70534;SHT31;58088;51.186;17.130;2022-09-17T05:31:18;12.36;74.49
70534;SHT31;58088;51.186;17.130;2022-09-17T05:33:44;12.39;74.44
70534;SHT31;58088;51.186;17.130;2022-09-17T05:36:10;12.41;74.32
70534;SHT31;58088;51.186;17.130;2022-09-17T05:38:36;12.43;74.26
70534;SHT31;58088;51.186;17.130;2022-09-17T05:41:03;12.46;74.26
70534;SHT31;58088;51.186;17.130;2022-09-17T05:43:31;12.50;74.30
70534;SHT31;58088;51.186;17.130;2022-09-17T05:46:02;12.54;74.27
70534;SHT31;58088;51.186;17.130;2022-09-17T05:48:31;12.56;74.09
70534;SHT31;58088;51.186;17.130;2022-09-17T05:50:58;12.57;74.01
70534;SHT31;58088;51.186;17.130;2022-09-17T05:53:24;12.60;73.86
70534;SHT31;58088;51.186;17.130;2022-09-17T05:55:50;12.61;73.77
70534;SHT31;58088;51.186;17.130;2022-09-17T05:58:21;12.64;73.59
70534;SHT31;58088;51.186;17.130;2022-09-17T06:00:47;12.68;73.53
70534;SHT31;58088;51.186;17.130;2022-09-17T06:03:14;12.73;73.46
70534;SHT31;58088;51.186;17.130;2022-09-17T06:05:52;12.75;73.48
70534;SHT31;58088;51.186;17.130;2022-09-17T06:08:26;12.75;73.66
70534;SHT31;58088;51.186;17.130;2022-09-17T06:10:54;12.78;73.74
70534;SHT31;58088;51.186;17.130;2022-09-17T06:13:21;12.81;73.73
70534;SHT31;58088;51.186;17.130;2022-09-17T06:15:51;12.86;73.75
70534;SHT31;58088;51.186;17.130;2022-09-17T06:18:18;12.90;73.71
70534;SHT31;58088;51.186;17.130;2022-09-17T06:20:55;12.95;73.92
70534;SHT31;58088;51.186;17.130;2022-09-17T06:23:27;12.98;74.10
70534;SHT31;58088;51.186;17.130;2022-09-17T06:26:00;12.98;74.25
70534;SHT31;58088;51.186;17.130;2022-09-17T06:28:31;12.99;74.40
70534;SHT31;58088;51.186;17.130;2022-09-17T06:31:01;13.01;74.49
70534;SHT31;58088;51.186;17.130;2022-09-17T06:33:32;13.02;74.53
70534;SHT31;58088;51.186;17.130;2022-09-17T06:36:06;13.04;74.64
70534;SHT31;58088;51.186;17.130;2022-09-17T06:38:38;13.06;74.87
70534;SHT31;58088;51.186;17.130;2022-09-17T06:41:07;13.05;74.99
70534;SHT31;58088;51.186;17.130;2022-09-17T06:43:38;13.07;75.14
70534;SHT31;58088;51.186;17.130;2022-09-17T06:46:08;13.10;75.09
70534;SHT31;58088;51.186;17.130;2022-09-17T06:48:37;13.15;75.15
70534;SHT31;58088;51.186;17.130;2022-09-17T06:51:07;13.15;75.16
70534;SHT31;58088;51.186;17.130;2022-09-17T06:53:36;13.21;75.05
70534;SHT31;58088;51.186;17.130;2022-09-17T06:56:04;13.22;74.91
70534;SHT31;58088;51.186;17.130;2022-09-17T06:58:33;13.27;75.00
70534;SHT31;58088;51.186;17.130;2022-09-17T07:01:02;13.29;74.82
70534;SHT31;58088;51.186;17.130;2022-09-17T07:03:30;13.31;74.88
70534;SHT31;58088;51.186;17.130;2022-09-17T07:06:08;13.34;74.63
70534;SHT31;58088;51.186;17.130;2022-09-17T07:08:35;13.35;74.39
70534;SHT31;58088;51.186;17.130;2022-09-17T07:11:02;13.39;74.29
70534;SHT31;58088;51.186;17.130;2022-09-17T07:13:30;13.42;74.20
70534;SHT31;58088;51.186;17.130;2022-09-17T07:15:57;13.44;74.04
70534;SHT31;58088;51.186;17.130;2022-09-17T07:18:28;13.45;74.08
70534;SHT31;58088;51.186;17.130;2022-09-17T07:20:58;13.52;74.09
70534;SHT31;58088;51.186;17.130;2022-09-17T07:23:29;13.53;73.99
70534;SHT31;58088;51.186;17.130;2022-09-17T07:26:00;13.53;73.88
70534;SHT31;58088;51.186;17.130;2022-09-17T07:28:30;13.56;73.76
70534;SHT31;58088;51.186;17.130;2022-09-17T07:30:57;13.66;73.64
70534;SHT31;58088;51.186;17.130;2022-09-17T07:33:27;13.75;73.60
70534;SHT31;58088;51.186;17.130;2022-09-17T07:35:57;13.86;73.42
70534;SHT31;58088;51.186;17.130;2022-09-17T07:38:26;13.99;73.29
70534;SHT31;58088;51.186;17.130;2022-09-17T07:41:01;14.11;73.16
70534;SHT31;58088;51.186;17.130;2022-09-17T07:43:56;14.18;72.74
70534;SHT31;58088;51.186;17.130;2022-09-17T07:46:22;14.19;72.53
70534;SHT31;58088;51.186;17.130;2022-09-17T07:48:49;14.19;72.38
70534;SHT31;58088;51.186;17.130;2022-09-17T07:51:17;14.21;72.30
70534;SHT31;58088;51.186;17.130;2022-09-17T07:53:46;14.24;72.30
70534;SHT31;58088;51.186;17.130;2022-09-17T07:56:17;14.26;72.20
70534;SHT31;58088;51.186;17.130;2022-09-17T07:58:43;14.27;71.98
70534;SHT31;58088;51.186;17.130;2022-09-17T08:01:10;14.22;71.81
70534;SHT31;58088;51.186;17.130;2022-09-17T08:03:39;14.16;71.63
70534;SHT31;58088;51.186;17.130;2022-09-17T08:06:07;14.16;71.68
70534;SHT31;58088;51.186;17.130;2022-09-17T08:08:39;14.16;71.66
70534;SHT31;58088;51.186;17.130;2022-09-17T08:11:10;14.18;71.70
70534;SHT31;58088;51.186;17.130;2022-09-17T08:13:39;14.22;71.77
70534;SHT31;58088;51.186;17.130;2022-09-17T08:16:07;14.26;71.65
70534;SHT31;58088;51.186;17.130;2022-09-17T08:18:40;14.31;71.65
70534;SHT31;58088;51.186;17.130;2022-09-17T08:21:09;14.38;71.76
70534;SHT31;58088;51.186;17.130;2022-09-17T08:23:41;14.40;71.58
70534;SHT31;58088;51.186;17.130;2022-09-17T08:26:13;14.38;71.34
70534;SHT31;58088;51.186;17.130;2022-09-17T08:28:46;14.40;71.37
70534;SHT31;58088;51.186;17.130;2022-09-17T08:31:16;14.44;71.38
70534;SHT31;58088;51.186;17.130;2022-09-17T08:33:45;14.44;71.21
70534;SHT31;58088;51.186;17.130;2022-09-17T08:36:15;14.45;71.22
70534;SHT31;58088;51.186;17.130;2022-09-17T08:38:43;14.49;71.20
70534;SHT31;58088;51.186;17.130;2022-09-17T08:43:47;14.60;71.00
70534;SHT31;58088;51.186;17.130;2022-09-17T08:46:22;14.65;70.92
70534;SHT31;58088;51.186;17.130;2022-09-17T08:55:02;14.80;71.02
70534;SHT31;58088;51.186;17.130;2022-09-17T09:00:34;14.89;70.89
70534;SHT31;58088;51.186;17.130;2022-09-17T09:03:20;14.92;70.70
70534;SHT31;58088;51.186;17.130;2022-09-17T09:06:07;14.87;70.50
70534;SHT31;58088;51.186;17.130;2022-09-17T09:08:40;14.91;70.60
70534;SHT31;58088;51.186;17.130;2022-09-17T09:11:17;14.95;70.38
70534;SHT31;58088;51.186;17.130;2022-09-17T09:13:53;14.94;70.23
70534;SHT31;58088;51.186;17.130;2022-09-17T09:16:31;14.99;70.18
70534;SHT31;58088;51.186;17.130;2022-09-17T09:19:09;15.03;70.29
70534;SHT31;58088;51.186;17.130;2022-09-17T09:22:13;14.99;70.07
70534;SHT31;58088;51.186;17.130;2022-09-17T09:27:48;14.97;69.81
70534;SHT31;58088;51.186;17.130;2022-09-17T09:33:38;15.02;69.98
70534;SHT31;58088;51.186;17.130;2022-09-17T09:36:12;15.04;69.93
70534;SHT31;58088;51.186;17.130;2022-09-17T09:38:53;15.06;69.81
70534;SHT31;58088;51.186;17.130;2022-09-17T09:44:21;15.02;70.00
70534;SHT31;58088;51.186;17.130;2022-09-17T09:57:44;15.29;69.92
70534;SHT31;58088;51.186;17.130;2022-09-17T10:03:37;15.32;69.44
70534;SHT31;58088;51.186;17.130;2022-09-17T10:06:07;15.26;69.36
70534;SHT31;58088;51.186;17.130;2022-09-17T10:08:38;15.29;69.48
70534;SHT31;58088;51.186;17.130;2022-09-17T10:13:38;15.48;69.65
70534;SHT31;58088;51.186;17.130;2022-09-17T10:16:24;15.48;69.10
70534;SHT31;58088;51.186;17.130;2022-09-17T10:19:10;15.49;69.05
70534;SHT31;58088;51.186;17.130;2022-09-17T10:21:44;15.56;69.08
70534;SHT31;58088;51.186;17.130;2022-09-17T10:24:21;15.56;68.68
70534;SHT31;58088;51.186;17.130;2022-09-17T10:26:59;15.54;68.55
70534;SHT31;58088;51.186;17.130;2022-09-17T10:29:30;15.55;68.68
70534;SHT31;58088;51.186;17.130;2022-09-17T10:31:58;15.57;68.77
70534;SHT31;58088;51.186;17.130;2022-09-17T10:34:26;15.57;68.71
70534;SHT31;58088;51.186;17.130;2022-09-17T10:36:55;15.57;68.59
70534;SHT31;58088;51.186;17.130;2022-09-17T10:41:52;15.52;68.70
70534;SHT31;58088;51.186;17.130;2022-09-17T10:44:23;15.53;68.74
70534;SHT31;58088;51.186;17.130;2022-09-17T10:46:53;15.58;68.85
70534;SHT31;58088;51.186;17.130;2022-09-17T10:49:25;15.64;68.88
70534;SHT31;58088;51.186;17.130;2022-09-17T10:52:13;15.63;68.69
70534;SHT31;58088;51.186;17.130;2022-09-17T10:54:57;15.58;68.60
70534;SHT31;58088;51.186;17.130;2022-09-17T10:58:03;15.58;68.85
70534;SHT31;58088;51.186;17.130;2022-09-17T11:03:58;15.59;68.91
70534;SHT31;58088;51.186;17.130;2022-09-17T11:10:03;15.66;69.04
70534;SHT31;58088;51.186;17.130;2022-09-17T11:13:34;15.83;68.89
70534;SHT31;58088;51.186;17.130;2022-09-17T11:25:34;16.32;67.58
70534;SHT31;58088;51.186;17.130;2022-09-17T11:28:34;16.31;67.46
70534;SHT31;58088;51.186;17.130;2022-09-17T11:31:49;16.26;67.09
70534;SHT31;58088;51.186;17.130;2022-09-17T11:34:56;16.21;67.15
70534;SHT31;58088;51.186;17.130;2022-09-17T11:37:51;16.15;67.22
70534;SHT31;58088;51.186;17.130;2022-09-17T11:40:46;16.09;67.19
70534;SHT31;58088;51.186;17.130;2022-09-17T11:43:36;16.06;67.12
70534;SHT31;58088;51.186;17.130;2022-09-17T11:46:46;16.02;67.25
70534;SHT31;58088;51.186;17.130;2022-09-17T11:52:42;16.18;66.91
70534;SHT31;58088;51.186;17.130;2022-09-17T11:58:02;16.73;66.53
70534;SHT31;58088;51.186;17.130;2022-09-17T12:00:53;16.88;65.22
70534;SHT31;58088;51.186;17.130;2022-09-17T12:03:30;17.01;65.01
70534;SHT31;58088;51.186;17.130;2022-09-17T12:06:10;17.03;64.55
70534;SHT31;58088;51.186;17.130;2022-09-17T12:09:08;17.04;64.26
70534;SHT31;58088;51.186;17.130;2022-09-17T12:17:28;17.33;63.68
70534;SHT31;58088;51.186;17.130;2022-09-17T12:20:05;17.34;62.92
70534;SHT31;58088;51.186;17.130;2022-09-17T12:23:03;17.39;62.88
70534;SHT31;58088;51.186;17.130;2022-09-17T12:25:43;17.41;62.65
70534;SHT31;58088;51.186;17.130;2022-09-17T12:28:29;17.35;62.45
70534;SHT31;58088;51.186;17.130;2022-09-17T12:37:54;17.34;62.99
70534;SHT31;58088;51.186;17.130;2022-09-17T12:46:09;17.47;62.47
70534;SHT31;58088;51.186;17.130;2022-09-17T12:52:26;17.52;62.69
70534;SHT31;58088;51.186;17.130;2022-09-17T12:55:24;17.67;62.45
70534;SHT31;58088;51.186;17.130;2022-09-17T12:58:23;17.75;61.65
70534;SHT31;58088;51.186;17.130;2022-09-17T13:01:12;17.76;61.25
70534;SHT31;58088;51.186;17.130;2022-09-17T13:03:49;17.80;61.93
70534;SHT31;58088;51.186;17.130;2022-09-17T13:06:39;17.81;62.10
70534;SHT31;58088;51.186;17.130;2022-09-17T13:09:31;17.77;62.07
70534;SHT31;58088;51.186;17.130;2022-09-17T13:12:56;17.71;62.44
70534;SHT31;58088;51.186;17.130;2022-09-17T13:18:57;17.50;62.26
70534;SHT31;58088;51.186;17.130;2022-09-17T13:21:51;17.36;62.19
70534;SHT31;58088;51.186;17.130;2022-09-17T13:24:25;17.29;62.92
70534;SHT31;58088;51.186;17.130;2022-09-17T13:26:56;17.20;63.60
70534;SHT31;58088;51.186;17.130;2022-09-17T13:37:42;17.26;64.74
70534;SHT31;58088;51.186;17.130;2022-09-17T13:40:25;17.34;64.63
70534;SHT31;58088;51.186;17.130;2022-09-17T13:48:28;17.55;64.26
70534;SHT31;58088;51.186;17.130;2022-09-17T13:51:41;17.62;63.58
70534;SHT31;58088;51.186;17.130;2022-09-17T13:54:00;17.70;62.76
70534;SHT31;58088;51.186;17.130;2022-09-17T13:56:31;17.69;62.18
70534;SHT31;58088;51.186;17.130;2022-09-17T13:59:08;17.65;62.32
70534;SHT31;58088;51.186;17.130;2022-09-17T14:20:54;16.87;68.25
70534;SHT31;58088;51.186;17.130;2022-09-17T14:24:00;16.86;68.32
70534;SHT31;58088;51.186;17.130;2022-09-17T14:26:47;16.66;68.29
70534;SHT31;58088;51.186;17.130;2022-09-17T14:32:43;16.37;69.03
70534;SHT31;58088;51.186;17.130;2022-09-17T14:35:23;16.29;69.88
70534;SHT31;58088;51.186;17.130;2022-09-17T14:38:07;16.23;70.01
70534;SHT31;58088;51.186;17.130;2022-09-17T14:40:45;16.13;70.12
70534;SHT31;58088;51.186;17.130;2022-09-17T14:43:33;16.02;70.60
70534;SHT31;58088;51.186;17.130;2022-09-17T14:51:54;15.97;70.94
70534;SHT31;58088;51.186;17.130;2022-09-17T14:54:26;15.92;71.27
70534;SHT31;58088;51.186;17.130;2022-09-17T14:56:57;15.88;71.42
70534;SHT31;58088;51.186;17.130;2022-09-17T15:02:36;15.91;72.19
70534;SHT31;58088;51.186;17.130;2022-09-17T15:08:05;16.02;72.27
70534;SHT31;58088;51.186;17.130;2022-09-17T15:10:54;16.05;72.33
70534;SHT31;58088;51.186;17.130;2022-09-17T15:13:28;16.12;72.43
70534;SHT31;58088;51.186;17.130;2022-09-17T15:16:04;16.15;72.30
70534;SHT31;58088;51.186;17.130;2022-09-17T15:18:40;16.16;72.05
70534;SHT31;58088;51.186;17.130;2022-09-17T15:26:50;16.11;72.41
70534;SHT31;58088;51.186;17.130;2022-09-17T15:29:22;16.12;72.55
70534;SHT31;58088;51.186;17.130;2022-09-17T15:31:53;16.11;72.49
70534;SHT31;58088;51.186;17.130;2022-09-17T15:34:20;16.10;72.63
70534;SHT31;58088;51.186;17.130;2022-09-17T15:37:04;16.11;72.94
70534;SHT31;58088;51.186;17.130;2022-09-17T15:39:48;16.12;73.18
70534;SHT31;58088;51.186;17.130;2022-09-17T15:42:25;16.14;73.18
70534;SHT31;58088;51.186;17.130;2022-09-17T15:47:59;16.05;72.71
70534;SHT31;58088;51.186;17.130;2022-09-17T15:50:28;15.97;72.73
70534;SHT31;58088;51.186;17.130;2022-09-17T15:55:38;15.51;71.80
70534;SHT31;58088;51.186;17.130;2022-09-17T15:58:22;15.35;71.60
70534;SHT31;58088;51.186;17.130;2022-09-17T16:08:45;14.87;72.49
70534;SHT31;58088;51.186;17.130;2022-09-17T16:11:14;14.84;72.64
70534;SHT31;58088;51.186;17.130;2022-09-17T16:13:52;14.80;72.42
70534;SHT31;58088;51.186;17.130;2022-09-17T16:16:25;14.72;72.59
70534;SHT31;58088;51.186;17.130;2022-09-17T16:19:03;14.66;72.97
70534;SHT31;58088;51.186;17.130;2022-09-17T16:21:31;14.61;73.18
70534;SHT31;58088;51.186;17.130;2022-09-17T16:23:57;14.56;73.29
70534;SHT31;58088;51.186;17.130;2022-09-17T16:26:25;14.57;73.43
70534;SHT31;58088;51.186;17.130;2022-09-17T16:28:58;14.57;73.36
70534;SHT31;58088;51.186;17.130;2022-09-17T16:31:30;14.57;73.52
70534;SHT31;58088;51.186;17.130;2022-09-17T16:33:58;14.57;73.68
70534;SHT31;58088;51.186;17.130;2022-09-17T16:36:25;14.56;73.80
70534;SHT31;58088;51.186;17.130;2022-09-17T16:38:55;14.58;73.84
70534;SHT31;58088;51.186;17.130;2022-09-17T16:41:21;14.60;73.91
70534;SHT31;58088;51.186;17.130;2022-09-17T16:43:47;14.62;74.03
70534;SHT31;58088;51.186;17.130;2022-09-17T16:46:14;14.65;74.29
70534;SHT31;58088;51.186;17.130;2022-09-17T16:48:40;14.66;74.56
70534;SHT31;58088;51.186;17.130;2022-09-17T16:51:08;14.69;74.51
70534;SHT31;58088;51.186;17.130;2022-09-17T16:53:38;14.65;74.40
70534;SHT31;58088;51.186;17.130;2022-09-17T16:56:09;14.61;74.47
70534;SHT31;58088;51.186;17.130;2022-09-17T16:58:38;14.54;74.71
70534;SHT31;58088;51.186;17.130;2022-09-17T17:01:06;14.45;74.96
70534;SHT31;58088;51.186;17.130;2022-09-17T17:03:40;14.40;75.08
70534;SHT31;58088;51.186;17.130;2022-09-17T17:06:17;14.39;75.04
70534;SHT31;58088;51.186;17.130;2022-09-17T17:08:46;14.36;74.72
70534;SHT31;58088;51.186;17.130;2022-09-17T17:11:13;14.25;74.55
70534;SHT31;58088;51.186;17.130;2022-09-17T17:13:42;14.14;74.43
70534;SHT31;58088;51.186;17.130;2022-09-17T17:16:10;14.06;74.47
70534;SHT31;58088;51.186;17.130;2022-09-17T17:18:42;13.98;74.30
70534;SHT31;58088;51.186;17.130;2022-09-17T17:21:10;13.91;74.22
70534;SHT31;58088;51.186;17.130;2022-09-17T17:23:38;13.89;74.21
70534;SHT31;58088;51.186;17.130;2022-09-17T17:26:08;13.86;74.17
70534;SHT31;58088;51.186;17.130;2022-09-17T17:28:34;13.80;74.24
70534;SHT31;58088;51.186;17.130;2022-09-17T17:31:01;13.76;74.22
70534;SHT31;58088;51.186;17.130;2022-09-17T17:33:28;13.73;74.19
70534;SHT31;58088;51.186;17.130;2022-09-17T17:35:54;13.69;74.16
70534;SHT31;58088;51.186;17.130;2022-09-17T17:38:25;13.68;74.18
70534;SHT31;58088;51.186;17.130;2022-09-17T17:41:09;13.62;74.14
70534;SHT31;58088;51.186;17.130;2022-09-17T17:43:42;13.59;74.24
70534;SHT31;58088;51.186;17.130;2022-09-17T17:46:09;13.56;74.32
70534;SHT31;58088;51.186;17.130;2022-09-17T17:48:36;13.56;74.29
70534;SHT31;58088;51.186;17.130;2022-09-17T17:51:04;13.55;74.25
70534;SHT31;58088;51.186;17.130;2022-09-17T17:53:33;13.51;74.28
70534;SHT31;58088;51.186;17.130;2022-09-17T17:56:01;13.50;74.36
70534;SHT31;58088;51.186;17.130;2022-09-17T17:58:34;13.48;74.39
70534;SHT31;58088;51.186;17.130;2022-09-17T18:01:11;13.47;74.47
70534;SHT31;58088;51.186;17.130;2022-09-17T18:03:44;13.43;74.43
70534;SHT31;58088;51.186;17.130;2022-09-17T18:06:10;13.43;74.51
70534;SHT31;58088;51.186;17.130;2022-09-17T18:08:38;13.41;74.56
70534;SHT31;58088;51.186;17.130;2022-09-17T18:11:07;13.41;74.50
70534;SHT31;58088;51.186;17.130;2022-09-17T18:13:36;13.40;74.48
70534;SHT31;58088;51.186;17.130;2022-09-17T18:16:04;13.36;74.48
70534;SHT31;58088;51.186;17.130;2022-09-17T18:18:34;13.32;74.45
70534;SHT31;58088;51.186;17.130;2022-09-17T18:21:07;13.25;74.42
70534;SHT31;58088;51.186;17.130;2022-09-17T18:23:37;13.22;74.49
70534;SHT31;58088;51.186;17.130;2022-09-17T18:26:06;13.19;74.59
70534;SHT31;58088;51.186;17.130;2022-09-17T18:28:37;13.15;74.63
70534;SHT31;58088;51.186;17.130;2022-09-17T18:31:07;13.13;74.61
70534;SHT31;58088;51.186;17.130;2022-09-17T18:33:57;13.09;74.51
70534;SHT31;58088;51.186;17.130;2022-09-17T18:36:27;13.06;74.42
70534;SHT31;58088;51.186;17.130;2022-09-17T18:38:57;13.06;74.40
70534;SHT31;58088;51.186;17.130;2022-09-17T18:41:27;13.06;74.39
70534;SHT31;58088;51.186;17.130;2022-09-17T18:43:54;13.03;74.30
70534;SHT31;58088;51.186;17.130;2022-09-17T18:46:22;13.02;74.25
70534;SHT31;58088;51.186;17.130;2022-09-17T18:48:51;12.97;74.24
70534;SHT31;58088;51.186;17.130;2022-09-17T18:51:19;12.92;74.32
70534;SHT31;58088;51.186;17.130;2022-09-17T18:53:46;12.92;74.48
70534;SHT31;58088;51.186;17.130;2022-09-17T18:56:16;12.91;74.51
70534;SHT31;58088;51.186;17.130;2022-09-17T18:58:46;12.91;74.68
70534;SHT31;58088;51.186;17.130;2022-09-17T19:01:15;12.92;74.75
70534;SHT31;58088;51.186;17.130;2022-09-17T19:03:43;12.92;74.71
70534;SHT31;58088;51.186;17.130;2022-09-17T19:06:10;12.90;74.74
70534;SHT31;58088;51.186;17.130;2022-09-17T19:08:40;12.92;75.20
70534;SHT31;58088;51.186;17.130;2022-09-17T19:11:07;12.91;75.09